sensor_id;sensor_type;location;lat;lon;timestamp;P1;durP1;ratioP1;P2;durP2;ratioP2
10851;SDS011;5479;52.046;6.314;2023-10-13T00:00:38;44.13;;;32.72;;
10851;SDS011;5479;52.046;6.314;2023-10-13T00:03:12;48.58;;;32.78;;
10851;SDS011;5479;52.046;6.314;2023-10-13T00:05:42;46.53;;;33.20;;
10851;SDS011;5479;52.046;6.314;2023-10-13T00:08:11;48.22;;;33.65;;
10851;SDS011;5479;52.046;6.314;2023-10-13T00:10:39;40.72;;;29.27;;
10851;SDS011;5479;52.046;6.314;2023-10-13T00:13:09;39.30;;;29.15;;
10851;SDS011;5479;52.046;6.314;2023-10-13T00:15:41;45.65;;;30.85;;
10851;SDS011;5479;52.046;6.314;2023-10-13T00:18:23;39.97;;;29.40;;
10851;SDS011;5479;52.046;6.314;2023-10-13T00:20:53;45.30;;;29.95;;
10851;SDS011;5479;52.046;6.314;2023-10-13T00:23:23;42.58;;;29.70;;
10851;SDS011;5479;52.046;6.314;2023-10-13T00:25:55;40.65;;;29.75;;
10851;SDS011;5479;52.046;6.314;2023-10-13T00:28:30;42.63;;;28.85;;
10851;SDS011;5479;52.046;6.314;2023-10-13T00:31:09;36.92;;;27.25;;
10851;SDS011;5479;52.046;6.314;2023-10-13T00:33:38;36.83;;;28.30;;
10851;SDS011;5479;52.046;6.314;2023-10-13T00:36:09;39.35;;;26.90;;
10851;SDS011;5479;52.046;6.314;2023-10-13T00:38:43;36.17;;;27.27;;
10851;SDS011;5479;52.046;6.314;2023-10-13T00:41:14;36.05;;;26.70;;
10851;SDS011;5479;52.046;6.314;2023-10-13T00:43:47;34.22;;;25.23;;
10851;SDS011;5479;52.046;6.314;2023-10-13T00:46:30;33.95;;;27.17;;
10851;SDS011;5479;52.046;6.314;2023-10-13T00:49:00;41.63;;;27.67;;
10851;SDS011;5479;52.046;6.314;2023-10-13T00:51:30;36.63;;;25.73;;
10851;SDS011;5479;52.046;6.314;2023-10-13T00:54:02;37.20;;;27.52;;
10851;SDS011;5479;52.046;6.314;2023-10-13T00:56:37;36.33;;;26.88;;
10851;SDS011;5479;52.046;6.314;2023-10-13T00:59:14;35.97;;;26.88;;
10851;SDS011;5479;52.046;6.314;2023-10-13T01:01:42;36.38;;;26.58;;
10851;SDS011;5479;52.046;6.314;2023-10-13T01:04:11;36.50;;;26.58;;
10851;SDS011;5479;52.046;6.314;2023-10-13T01:06:39;34.97;;;26.35;;
10851;SDS011;5479;52.046;6.314;2023-10-13T01:09:07;34.97;;;26.38;;
10851;SDS011;5479;52.046;6.314;2023-10-13T01:11:40;33.17;;;25.42;;
10851;SDS011;5479;52.046;6.314;2023-10-13T01:14:10;39.08;;;25.48;;
10851;SDS011;5479;52.046;6.314;2023-10-13T01:16:40;35.05;;;25.58;;
10851;SDS011;5479;52.046;6.314;2023-10-13T01:19:10;33.22;;;24.80;;
10851;SDS011;5479;52.046;6.314;2023-10-13T01:21:38;32.78;;;24.90;;
10851;SDS011;5479;52.046;6.314;2023-10-13T01:24:09;35.95;;;25.90;;
10851;SDS011;5479;52.046;6.314;2023-10-13T01:26:37;33.67;;;25.35;;
10851;SDS011;5479;52.046;6.314;2023-10-13T01:29:06;35.47;;;24.30;;
10851;SDS011;5479;52.046;6.314;2023-10-13T01:31:41;35.20;;;24.50;;
10851;SDS011;5479;52.046;6.314;2023-10-13T01:34:13;33.47;;;23.98;;
10851;SDS011;5479;52.046;6.314;2023-10-13T01:36:46;30.25;;;23.25;;
10851;SDS011;5479;52.046;6.314;2023-10-13T01:39:18;34.40;;;24.20;;
10851;SDS011;5479;52.046;6.314;2023-10-13T01:41:56;36.75;;;24.17;;
10851;SDS011;5479;52.046;6.314;2023-10-13T01:44:24;32.90;;;22.73;;
10851;SDS011;5479;52.046;6.314;2023-10-13T01:46:53;33.20;;;24.55;;
10851;SDS011;5479;52.046;6.314;2023-10-13T01:49:21;34.10;;;24.25;;
10851;SDS011;5479;52.046;6.314;2023-10-13T01:51:49;34.97;;;24.17;;
10851;SDS011;5479;52.046;6.314;2023-10-13T01:54:18;30.23;;;23.23;;
10851;SDS011;5479;52.046;6.314;2023-10-13T01:56:53;31.77;;;22.75;;
10851;SDS011;5479;52.046;6.314;2023-10-13T01:59:21;30.83;;;22.58;;
10851;SDS011;5479;52.046;6.314;2023-10-13T02:01:48;33.60;;;23.52;;
10851;SDS011;5479;52.046;6.314;2023-10-13T02:04:18;31.98;;;22.77;;
10851;SDS011;5479;52.046;6.314;2023-10-13T02:06:47;34.88;;;23.58;;
10851;SDS011;5479;52.046;6.314;2023-10-13T02:09:15;33.55;;;23.42;;
10851;SDS011;5479;52.046;6.314;2023-10-13T02:11:53;33.15;;;22.95;;
10851;SDS011;5479;52.046;6.314;2023-10-13T02:14:21;30.20;;;22.73;;
10851;SDS011;5479;52.046;6.314;2023-10-13T02:16:48;34.35;;;23.73;;
10851;SDS011;5479;52.046;6.314;2023-10-13T02:19:17;33.85;;;22.83;;
10851;SDS011;5479;52.046;6.314;2023-10-13T02:21:45;31.50;;;22.57;;
10851;SDS011;5479;52.046;6.314;2023-10-13T02:24:24;30.67;;;22.73;;
10851;SDS011;5479;52.046;6.314;2023-10-13T02:26:57;27.13;;;21.13;;
10851;SDS011;5479;52.046;6.314;2023-10-13T02:29:29;27.65;;;21.25;;
10851;SDS011;5479;52.046;6.314;2023-10-13T02:31:58;31.10;;;22.00;;
10851;SDS011;5479;52.046;6.314;2023-10-13T02:34:37;30.85;;;20.65;;
10851;SDS011;5479;52.046;6.314;2023-10-13T02:37:10;27.55;;;20.55;;
10851;SDS011;5479;52.046;6.314;2023-10-13T02:39:38;30.33;;;20.50;;
10851;SDS011;5479;52.046;6.314;2023-10-13T02:42:09;29.33;;;21.00;;
10851;SDS011;5479;52.046;6.314;2023-10-13T02:44:50;27.27;;;20.50;;
10851;SDS011;5479;52.046;6.314;2023-10-13T02:47:18;28.55;;;19.92;;
10851;SDS011;5479;52.046;6.314;2023-10-13T02:49:50;29.17;;;20.13;;
10851;SDS011;5479;52.046;6.314;2023-10-13T02:52:16;26.77;;;19.42;;
10851;SDS011;5479;52.046;6.314;2023-10-13T02:54:45;28.45;;;21.98;;
10851;SDS011;5479;52.046;6.314;2023-10-13T02:57:14;25.30;;;20.13;;
10851;SDS011;5479;52.046;6.314;2023-10-13T02:59:43;29.00;;;20.63;;
10851;SDS011;5479;52.046;6.314;2023-10-13T03:02:13;30.52;;;21.02;;
10851;SDS011;5479;52.046;6.314;2023-10-13T03:04:50;26.70;;;19.95;;
10851;SDS011;5479;52.046;6.314;2023-10-13T03:07:18;25.05;;;19.17;;
10851;SDS011;5479;52.046;6.314;2023-10-13T03:09:49;31.92;;;20.05;;
10851;SDS011;5479;52.046;6.314;2023-10-13T03:12:18;28.27;;;20.13;;
10851;SDS011;5479;52.046;6.314;2023-10-13T03:14:47;26.70;;;19.55;;
10851;SDS011;5479;52.046;6.314;2023-10-13T03:17:15;27.10;;;20.07;;
10851;SDS011;5479;52.046;6.314;2023-10-13T03:19:45;28.48;;;19.52;;
10851;SDS011;5479;52.046;6.314;2023-10-13T03:22:16;30.93;;;20.70;;
10851;SDS011;5479;52.046;6.314;2023-10-13T03:24:44;28.60;;;19.77;;
10851;SDS011;5479;52.046;6.314;2023-10-13T03:27:12;28.08;;;19.98;;
10851;SDS011;5479;52.046;6.314;2023-10-13T03:29:45;30.42;;;20.17;;
10851;SDS011;5479;52.046;6.314;2023-10-13T03:32:15;25.63;;;19.73;;
10851;SDS011;5479;52.046;6.314;2023-10-13T03:34:43;22.70;;;18.15;;
10851;SDS011;5479;52.046;6.314;2023-10-13T03:37:37;27.73;;;18.20;;
10851;SDS011;5479;52.046;6.314;2023-10-13T03:40:06;25.42;;;18.00;;
10851;SDS011;5479;52.046;6.314;2023-10-13T03:42:56;25.47;;;16.73;;
10851;SDS011;5479;52.046;6.314;2023-10-13T03:45:32;26.30;;;16.17;;
10851;SDS011;5479;52.046;6.314;2023-10-13T03:48:05;25.08;;;15.18;;
10851;SDS011;5479;52.046;6.314;2023-10-13T03:50:36;23.17;;;15.45;;
10851;SDS011;5479;52.046;6.314;2023-10-13T03:53:12;20.33;;;15.35;;
10851;SDS011;5479;52.046;6.314;2023-10-13T03:55:41;23.38;;;15.20;;
10851;SDS011;5479;52.046;6.314;2023-10-13T03:58:14;25.67;;;15.77;;
10851;SDS011;5479;52.046;6.314;2023-10-13T04:00:44;20.67;;;15.25;;
10851;SDS011;5479;52.046;6.314;2023-10-13T04:03:12;20.40;;;14.85;;
10851;SDS011;5479;52.046;6.314;2023-10-13T04:05:43;19.80;;;14.93;;
10851;SDS011;5479;52.046;6.314;2023-10-13T04:08:13;25.57;;;17.03;;
10851;SDS011;5479;52.046;6.314;2023-10-13T04:10:59;25.67;;;16.90;;
10851;SDS011;5479;52.046;6.314;2023-10-13T04:13:44;25.60;;;17.83;;
10851;SDS011;5479;52.046;6.314;2023-10-13T04:16:30;26.67;;;18.45;;
10851;SDS011;5479;52.046;6.314;2023-10-13T04:19:17;26.27;;;19.67;;
10851;SDS011;5479;52.046;6.314;2023-10-13T04:21:50;26.80;;;19.57;;
10851;SDS011;5479;52.046;6.314;2023-10-13T04:24:25;28.57;;;21.30;;
10851;SDS011;5479;52.046;6.314;2023-10-13T04:27:11;31.50;;;21.90;;
10851;SDS011;5479;52.046;6.314;2023-10-13T04:29:58;26.58;;;19.52;;
10851;SDS011;5479;52.046;6.314;2023-10-13T04:32:39;32.35;;;21.70;;
10851;SDS011;5479;52.046;6.314;2023-10-13T04:35:12;27.97;;;20.47;;
10851;SDS011;5479;52.046;6.314;2023-10-13T04:37:45;26.95;;;20.08;;
10851;SDS011;5479;52.046;6.314;2023-10-13T04:40:21;28.70;;;19.40;;
10851;SDS011;5479;52.046;6.314;2023-10-13T04:42:51;28.87;;;19.30;;
10851;SDS011;5479;52.046;6.314;2023-10-13T04:45:23;23.70;;;17.13;;
10851;SDS011;5479;52.046;6.314;2023-10-13T04:48:09;23.45;;;16.38;;
10851;SDS011;5479;52.046;6.314;2023-10-13T04:50:59;23.07;;;16.03;;
10851;SDS011;5479;52.046;6.314;2023-10-13T04:53:45;24.13;;;15.77;;
10851;SDS011;5479;52.046;6.314;2023-10-13T04:56:28;24.83;;;16.37;;
10851;SDS011;5479;52.046;6.314;2023-10-13T04:59:13;23.17;;;16.23;;
10851;SDS011;5479;52.046;6.314;2023-10-13T05:02:01;22.65;;;16.65;;
10851;SDS011;5479;52.046;6.314;2023-10-13T05:04:49;25.83;;;17.73;;
10851;SDS011;5479;52.046;6.314;2023-10-13T05:07:35;25.70;;;17.83;;
10851;SDS011;5479;52.046;6.314;2023-10-13T05:10:20;27.73;;;19.20;;
10851;SDS011;5479;52.046;6.314;2023-10-13T05:13:09;25.80;;;19.23;;
10851;SDS011;5479;52.046;6.314;2023-10-13T05:15:54;27.10;;;19.93;;
10851;SDS011;5479;52.046;6.314;2023-10-13T05:18:40;27.00;;;19.57;;
10851;SDS011;5479;52.046;6.314;2023-10-13T05:21:27;30.67;;;21.30;;
10851;SDS011;5479;52.046;6.314;2023-10-13T05:24:13;32.13;;;21.70;;
10851;SDS011;5479;52.046;6.314;2023-10-13T05:26:58;31.23;;;23.20;;
10851;SDS011;5479;52.046;6.314;2023-10-13T05:29:44;35.77;;;24.87;;
10851;SDS011;5479;52.046;6.314;2023-10-13T05:32:30;36.77;;;24.10;;
10851;SDS011;5479;52.046;6.314;2023-10-13T05:35:16;36.07;;;24.90;;
10851;SDS011;5479;52.046;6.314;2023-10-13T05:38:05;39.07;;;26.03;;
10851;SDS011;5479;52.046;6.314;2023-10-13T05:40:51;35.93;;;24.50;;
10851;SDS011;5479;52.046;6.314;2023-10-13T05:43:38;33.37;;;25.00;;
10851;SDS011;5479;52.046;6.314;2023-10-13T05:46:23;38.03;;;25.43;;
10851;SDS011;5479;52.046;6.314;2023-10-13T05:49:28;29.73;;;22.73;;
10851;SDS011;5479;52.046;6.314;2023-10-13T05:52:20;29.00;;;19.30;;
10851;SDS011;5479;52.046;6.314;2023-10-13T05:55:03;21.40;;;15.75;;
10851;SDS011;5479;52.046;6.314;2023-10-13T05:57:49;19.70;;;14.63;;
10851;SDS011;5479;52.046;6.314;2023-10-13T06:00:43;23.77;;;17.33;;
10851;SDS011;5479;52.046;6.314;2023-10-13T06:03:29;24.25;;;17.30;;
10851;SDS011;5479;52.046;6.314;2023-10-13T06:06:14;21.05;;;16.90;;
10851;SDS011;5479;52.046;6.314;2023-10-13T06:09:00;21.55;;;16.05;;
10851;SDS011;5479;52.046;6.314;2023-10-13T06:11:48;21.80;;;15.93;;
10851;SDS011;5479;52.046;6.314;2023-10-13T06:14:34;19.75;;;14.43;;
10851;SDS011;5479;52.046;6.314;2023-10-13T06:17:19;19.75;;;14.63;;
10851;SDS011;5479;52.046;6.314;2023-10-13T06:20:05;17.70;;;13.75;;
10851;SDS011;5479;52.046;6.314;2023-10-13T06:22:51;18.25;;;13.45;;
10851;SDS011;5479;52.046;6.314;2023-10-13T06:25:37;16.75;;;12.30;;
10851;SDS011;5479;52.046;6.314;2023-10-13T06:28:24;19.73;;;13.30;;
10851;SDS011;5479;52.046;6.314;2023-10-13T06:31:12;20.13;;;14.77;;
10851;SDS011;5479;52.046;6.314;2023-10-13T06:33:48;18.88;;;14.43;;
10851;SDS011;5479;52.046;6.314;2023-10-13T06:36:18;18.08;;;14.80;;
10851;SDS011;5479;52.046;6.314;2023-10-13T06:38:47;21.70;;;15.10;;
10851;SDS011;5479;52.046;6.314;2023-10-13T06:41:21;21.33;;;15.55;;
10851;SDS011;5479;52.046;6.314;2023-10-13T06:43:58;18.98;;;15.63;;
10851;SDS011;5479;52.046;6.314;2023-10-13T06:46:31;16.95;;;14.10;;
10851;SDS011;5479;52.046;6.314;2023-10-13T06:49:01;18.45;;;13.93;;
10851;SDS011;5479;52.046;6.314;2023-10-13T06:51:41;17.30;;;13.73;;
10851;SDS011;5479;52.046;6.314;2023-10-13T06:54:10;16.92;;;13.05;;
10851;SDS011;5479;52.046;6.314;2023-10-13T06:56:46;16.90;;;12.18;;
10851;SDS011;5479;52.046;6.314;2023-10-13T06:59:23;16.48;;;12.20;;
10851;SDS011;5479;52.046;6.314;2023-10-13T07:01:53;16.63;;;12.27;;
10851;SDS011;5479;52.046;6.314;2023-10-13T07:04:22;17.35;;;11.70;;
10851;SDS011;5479;52.046;6.314;2023-10-13T07:06:50;16.33;;;11.00;;
10851;SDS011;5479;52.046;6.314;2023-10-13T07:09:19;16.17;;;10.35;;
10851;SDS011;5479;52.046;6.314;2023-10-13T07:12:06;13.95;;;10.40;;
10851;SDS011;5479;52.046;6.314;2023-10-13T07:14:48;14.18;;;10.20;;
10851;SDS011;5479;52.046;6.314;2023-10-13T07:17:19;12.93;;;9.55;;
10851;SDS011;5479;52.046;6.314;2023-10-13T07:19:56;15.88;;;10.40;;
10851;SDS011;5479;52.046;6.314;2023-10-13T07:22:33;14.20;;;9.60;;
10851;SDS011;5479;52.046;6.314;2023-10-13T07:25:08;17.38;;;10.38;;
10851;SDS011;5479;52.046;6.314;2023-10-13T07:27:43;14.77;;;9.98;;
10851;SDS011;5479;52.046;6.314;2023-10-13T07:30:12;18.80;;;9.43;;
10851;SDS011;5479;52.046;6.314;2023-10-13T07:32:41;13.27;;;9.27;;
10851;SDS011;5479;52.046;6.314;2023-10-13T07:35:11;15.32;;;10.18;;
10851;SDS011;5479;52.046;6.314;2023-10-13T07:37:40;14.50;;;9.70;;
10851;SDS011;5479;52.046;6.314;2023-10-13T07:40:09;15.68;;;10.05;;
10851;SDS011;5479;52.046;6.314;2023-10-13T07:42:56;14.73;;;10.55;;
10851;SDS011;5479;52.046;6.314;2023-10-13T07:45:28;15.30;;;9.75;;
10851;SDS011;5479;52.046;6.314;2023-10-13T07:48:03;15.07;;;9.95;;
10851;SDS011;5479;52.046;6.314;2023-10-13T07:50:38;14.23;;;11.50;;
10851;SDS011;5479;52.046;6.314;2023-10-13T07:53:06;14.90;;;10.68;;
10851;SDS011;5479;52.046;6.314;2023-10-13T07:55:49;14.73;;;10.88;;
10851;SDS011;5479;52.046;6.314;2023-10-13T07:58:22;16.17;;;10.57;;
10851;SDS011;5479;52.046;6.314;2023-10-13T08:00:53;15.93;;;11.27;;
10851;SDS011;5479;52.046;6.314;2023-10-13T08:03:33;14.55;;;10.98;;
10851;SDS011;5479;52.046;6.314;2023-10-13T08:06:11;14.82;;;10.07;;
10851;SDS011;5479;52.046;6.314;2023-10-13T08:08:55;16.02;;;9.77;;
10851;SDS011;5479;52.046;6.314;2023-10-13T08:11:33;18.65;;;10.55;;
10851;SDS011;5479;52.046;6.314;2023-10-13T08:14:05;15.02;;;10.10;;
10851;SDS011;5479;52.046;6.314;2023-10-13T08:16:50;19.17;;;11.13;;
10851;SDS011;5479;52.046;6.314;2023-10-13T08:19:26;19.23;;;10.80;;
10851;SDS011;5479;52.046;6.314;2023-10-13T08:21:59;15.85;;;9.82;;
10851;SDS011;5479;52.046;6.314;2023-10-13T08:24:50;16.55;;;10.32;;
10851;SDS011;5479;52.046;6.314;2023-10-13T08:27:39;18.65;;;10.32;;
10851;SDS011;5479;52.046;6.314;2023-10-13T08:30:16;15.68;;;9.40;;
10851;SDS011;5479;52.046;6.314;2023-10-13T08:32:54;16.13;;;9.60;;
10851;SDS011;5479;52.046;6.314;2023-10-13T08:35:24;16.70;;;9.30;;
10851;SDS011;5479;52.046;6.314;2023-10-13T08:38:01;17.33;;;9.50;;
10851;SDS011;5479;52.046;6.314;2023-10-13T08:40:44;13.07;;;9.35;;
10851;SDS011;5479;52.046;6.314;2023-10-13T08:43:37;15.25;;;8.52;;
10851;SDS011;5479;52.046;6.314;2023-10-13T08:46:11;15.40;;;9.55;;
10851;SDS011;5479;52.046;6.314;2023-10-13T08:48:56;13.23;;;8.65;;
10851;SDS011;5479;52.046;6.314;2023-10-13T08:51:36;15.40;;;8.32;;
10851;SDS011;5479;52.046;6.314;2023-10-13T08:54:15;13.38;;;8.25;;
10851;SDS011;5479;52.046;6.314;2023-10-13T08:56:46;12.95;;;7.63;;
10851;SDS011;5479;52.046;6.314;2023-10-13T08:59:22;14.38;;;7.72;;
10851;SDS011;5479;52.046;6.314;2023-10-13T09:01:59;14.63;;;7.53;;
10851;SDS011;5479;52.046;6.314;2023-10-13T09:04:43;15.48;;;7.45;;
10851;SDS011;5479;52.046;6.314;2023-10-13T09:07:12;12.25;;;7.80;;
10851;SDS011;5479;52.046;6.314;2023-10-13T09:09:48;14.40;;;7.80;;
10851;SDS011;5479;52.046;6.314;2023-10-13T09:12:26;14.07;;;7.63;;
10851;SDS011;5479;52.046;6.314;2023-10-13T09:15:06;14.63;;;7.70;;
10851;SDS011;5479;52.046;6.314;2023-10-13T09:17:50;15.13;;;7.78;;
10851;SDS011;5479;52.046;6.314;2023-10-13T09:20:28;15.68;;;7.78;;
10851;SDS011;5479;52.046;6.314;2023-10-13T09:23:09;17.17;;;7.60;;
10851;SDS011;5479;52.046;6.314;2023-10-13T09:25:39;17.40;;;7.80;;
10851;SDS011;5479;52.046;6.314;2023-10-13T09:28:20;14.70;;;7.50;;
10851;SDS011;5479;52.046;6.314;2023-10-13T09:30:52;12.30;;;7.13;;
10851;SDS011;5479;52.046;6.314;2023-10-13T09:33:20;13.85;;;7.38;;
10851;SDS011;5479;52.046;6.314;2023-10-13T09:36:01;12.02;;;7.13;;
10851;SDS011;5479;52.046;6.314;2023-10-13T09:38:32;15.30;;;7.50;;
10851;SDS011;5479;52.046;6.314;2023-10-13T09:41:01;14.15;;;7.40;;
10851;SDS011;5479;52.046;6.314;2023-10-13T09:43:44;13.57;;;7.03;;
10851;SDS011;5479;52.046;6.314;2023-10-13T09:46:14;11.45;;;7.13;;
10851;SDS011;5479;52.046;6.314;2023-10-13T09:48:45;13.38;;;7.25;;
10851;SDS011;5479;52.046;6.314;2023-10-13T09:51:31;12.85;;;7.38;;
10851;SDS011;5479;52.046;6.314;2023-10-13T09:54:00;16.58;;;7.50;;
10851;SDS011;5479;52.046;6.314;2023-10-13T09:56:37;12.27;;;7.40;;
10851;SDS011;5479;52.046;6.314;2023-10-13T09:59:19;14.93;;;7.32;;
10851;SDS011;5479;52.046;6.314;2023-10-13T10:01:50;15.00;;;7.53;;
10851;SDS011;5479;52.046;6.314;2023-10-13T10:04:24;13.02;;;7.07;;
10851;SDS011;5479;52.046;6.314;2023-10-13T10:06:55;14.23;;;6.97;;
10851;SDS011;5479;52.046;6.314;2023-10-13T10:09:26;14.23;;;8.10;;
10851;SDS011;5479;52.046;6.314;2023-10-13T10:12:12;11.15;;;6.70;;
10851;SDS011;5479;52.046;6.314;2023-10-13T10:17:46;15.80;;;7.70;;
10851;SDS011;5479;52.046;6.314;2023-10-13T10:20:17;14.77;;;7.07;;
10851;SDS011;5479;52.046;6.314;2023-10-13T10:23:00;14.45;;;7.50;;
10851;SDS011;5479;52.046;6.314;2023-10-13T10:25:31;16.50;;;7.45;;
10851;SDS011;5479;52.046;6.314;2023-10-13T10:28:03;14.95;;;7.20;;
10851;SDS011;5479;52.046;6.314;2023-10-13T10:30:35;12.25;;;7.50;;
10851;SDS011;5479;52.046;6.314;2023-10-13T10:33:07;14.73;;;6.88;;
10851;SDS011;5479;52.046;6.314;2023-10-13T10:35:38;12.60;;;6.93;;
10851;SDS011;5479;52.046;6.314;2023-10-13T10:38:11;12.13;;;6.57;;
10851;SDS011;5479;52.046;6.314;2023-10-13T10:40:48;13.75;;;6.95;;
10851;SDS011;5479;52.046;6.314;2023-10-13T10:43:18;9.40;;;6.15;;
10851;SDS011;5479;52.046;6.314;2023-10-13T10:45:47;12.63;;;6.60;;
10851;SDS011;5479;52.046;6.314;2023-10-13T10:48:17;14.55;;;6.93;;
10851;SDS011;5479;52.046;6.314;2023-10-13T10:50:54;15.40;;;6.20;;
10851;SDS011;5479;52.046;6.314;2023-10-13T10:53:24;11.02;;;6.47;;
10851;SDS011;5479;52.046;6.314;2023-10-13T10:56:05;12.90;;;6.75;;
10851;SDS011;5479;52.046;6.314;2023-10-13T10:58:34;13.50;;;6.78;;
10851;SDS011;5479;52.046;6.314;2023-10-13T11:01:10;13.25;;;7.20;;
10851;SDS011;5479;52.046;6.314;2023-10-13T11:03:39;16.63;;;6.55;;
10851;SDS011;5479;52.046;6.314;2023-10-13T11:06:11;13.50;;;6.90;;
10851;SDS011;5479;52.046;6.314;2023-10-13T11:08:43;16.48;;;7.15;;
10851;SDS011;5479;52.046;6.314;2023-10-13T11:11:28;13.70;;;6.63;;
10851;SDS011;5479;52.046;6.314;2023-10-13T11:13:57;11.60;;;6.50;;
10851;SDS011;5479;52.046;6.314;2023-10-13T11:16:46;12.68;;;6.70;;
10851;SDS011;5479;52.046;6.314;2023-10-13T11:19:20;13.95;;;7.00;;
10851;SDS011;5479;52.046;6.314;2023-10-13T11:21:52;13.13;;;6.68;;
10851;SDS011;5479;52.046;6.314;2023-10-13T11:24:23;14.80;;;7.68;;
10851;SDS011;5479;52.046;6.314;2023-10-13T11:26:51;16.63;;;7.32;;
10851;SDS011;5479;52.046;6.314;2023-10-13T11:29:30;15.18;;;7.43;;
10851;SDS011;5479;52.046;6.314;2023-10-13T11:32:00;14.80;;;7.95;;
10851;SDS011;5479;52.046;6.314;2023-10-13T11:34:29;14.18;;;7.40;;
10851;SDS011;5479;52.046;6.314;2023-10-13T11:37:06;13.90;;;7.25;;
10851;SDS011;5479;52.046;6.314;2023-10-13T11:39:49;14.50;;;7.45;;
10851;SDS011;5479;52.046;6.314;2023-10-13T11:42:18;16.58;;;7.68;;
10851;SDS011;5479;52.046;6.314;2023-10-13T11:44:46;14.27;;;6.60;;
10851;SDS011;5479;52.046;6.314;2023-10-13T11:47:27;13.93;;;7.30;;
10851;SDS011;5479;52.046;6.314;2023-10-13T11:50:14;13.32;;;7.32;;
10851;SDS011;5479;52.046;6.314;2023-10-13T11:52:53;13.70;;;7.38;;
10851;SDS011;5479;52.046;6.314;2023-10-13T11:55:22;17.20;;;7.45;;
10851;SDS011;5479;52.046;6.314;2023-10-13T11:57:52;14.52;;;7.15;;
10851;SDS011;5479;52.046;6.314;2023-10-13T12:00:20;14.07;;;7.32;;
10851;SDS011;5479;52.046;6.314;2023-10-13T12:03:13;13.18;;;7.30;;
10851;SDS011;5479;52.046;6.314;2023-10-13T12:06:00;14.93;;;7.40;;
10851;SDS011;5479;52.046;6.314;2023-10-13T12:08:46;12.70;;;7.30;;
10851;SDS011;5479;52.046;6.314;2023-10-13T12:11:19;15.80;;;8.05;;
10851;SDS011;5479;52.046;6.314;2023-10-13T12:14:05;17.05;;;7.55;;
10851;SDS011;5479;52.046;6.314;2023-10-13T12:16:43;12.68;;;7.20;;
10851;SDS011;5479;52.046;6.314;2023-10-13T12:19:15;13.93;;;7.30;;
10851;SDS011;5479;52.046;6.314;2023-10-13T12:21:43;13.23;;;7.15;;
10851;SDS011;5479;52.046;6.314;2023-10-13T12:24:13;16.55;;;7.63;;
10851;SDS011;5479;52.046;6.314;2023-10-13T12:26:50;16.08;;;7.50;;
10851;SDS011;5479;52.046;6.314;2023-10-13T12:29:23;18.63;;;7.72;;
10851;SDS011;5479;52.046;6.314;2023-10-13T12:31:55;14.73;;;6.85;;
10851;SDS011;5479;52.046;6.314;2023-10-13T12:34:34;15.75;;;7.30;;
10851;SDS011;5479;52.046;6.314;2023-10-13T12:37:23;15.25;;;6.85;;
10851;SDS011;5479;52.046;6.314;2023-10-13T12:40:05;13.23;;;6.68;;
10851;SDS011;5479;52.046;6.314;2023-10-13T12:42:54;15.55;;;7.85;;
10851;SDS011;5479;52.046;6.314;2023-10-13T12:45:40;14.00;;;6.97;;
10851;SDS011;5479;52.046;6.314;2023-10-13T12:48:26;14.00;;;6.97;;
10851;SDS011;5479;52.046;6.314;2023-10-13T12:51:13;17.17;;;7.28;;
10851;SDS011;5479;52.046;6.314;2023-10-13T12:53:47;13.27;;;7.20;;
10851;SDS011;5479;52.046;6.314;2023-10-13T12:56:16;14.38;;;8.02;;
10851;SDS011;5479;52.046;6.314;2023-10-13T12:58:53;21.67;;;7.95;;
10851;SDS011;5479;52.046;6.314;2023-10-13T13:01:22;13.52;;;7.50;;
10851;SDS011;5479;52.046;6.314;2023-10-13T13:03:51;15.35;;;7.57;;
10851;SDS011;5479;52.046;6.314;2023-10-13T13:06:23;16.17;;;7.70;;
10851;SDS011;5479;52.046;6.314;2023-10-13T13:08:52;14.02;;;7.53;;
10851;SDS011;5479;52.046;6.314;2023-10-13T13:11:20;15.95;;;7.57;;
10851;SDS011;5479;52.046;6.314;2023-10-13T13:13:48;14.68;;;7.88;;
10851;SDS011;5479;52.046;6.314;2023-10-13T13:16:18;15.20;;;7.32;;
10851;SDS011;5479;52.046;6.314;2023-10-13T13:18:50;14.65;;;7.43;;
10851;SDS011;5479;52.046;6.314;2023-10-13T13:21:21;12.27;;;7.65;;
10851;SDS011;5479;52.046;6.314;2023-10-13T13:23:50;14.45;;;7.38;;
10851;SDS011;5479;52.046;6.314;2023-10-13T13:26:21;13.13;;;7.80;;
10851;SDS011;5479;52.046;6.314;2023-10-13T13:28:49;15.23;;;7.55;;
10851;SDS011;5479;52.046;6.314;2023-10-13T13:31:19;17.88;;;8.43;;
10851;SDS011;5479;52.046;6.314;2023-10-13T13:33:51;17.35;;;7.70;;
10851;SDS011;5479;52.046;6.314;2023-10-13T13:36:20;15.63;;;7.63;;
10851;SDS011;5479;52.046;6.314;2023-10-13T13:38:48;15.90;;;7.45;;
10851;SDS011;5479;52.046;6.314;2023-10-13T13:41:17;20.73;;;8.18;;
10851;SDS011;5479;52.046;6.314;2023-10-13T13:43:46;15.23;;;7.53;;
10851;SDS011;5479;52.046;6.314;2023-10-13T13:46:24;18.35;;;7.63;;
10851;SDS011;5479;52.046;6.314;2023-10-13T13:49:00;16.77;;;7.85;;
10851;SDS011;5479;52.046;6.314;2023-10-13T13:51:28;16.60;;;8.13;;
10851;SDS011;5479;52.046;6.314;2023-10-13T13:53:58;15.38;;;7.40;;
10851;SDS011;5479;52.046;6.314;2023-10-13T13:56:26;16.40;;;7.55;;
10851;SDS011;5479;52.046;6.314;2023-10-13T13:58:55;17.23;;;6.80;;
10851;SDS011;5479;52.046;6.314;2023-10-13T14:01:24;17.85;;;7.45;;
10851;SDS011;5479;52.046;6.314;2023-10-13T14:03:53;17.85;;;7.28;;
10851;SDS011;5479;52.046;6.314;2023-10-13T14:06:23;13.95;;;6.70;;
10851;SDS011;5479;52.046;6.314;2023-10-13T14:08:53;16.63;;;7.20;;
10851;SDS011;5479;52.046;6.314;2023-10-13T14:11:23;15.75;;;6.60;;
10851;SDS011;5479;52.046;6.314;2023-10-13T14:14:08;15.35;;;7.25;;
10851;SDS011;5479;52.046;6.314;2023-10-13T14:16:56;15.05;;;6.30;;
10851;SDS011;5479;52.046;6.314;2023-10-13T14:19:33;13.90;;;6.28;;
10851;SDS011;5479;52.046;6.314;2023-10-13T14:22:07;12.52;;;5.88;;
10851;SDS011;5479;52.046;6.314;2023-10-13T14:24:38;12.13;;;5.60;;
10851;SDS011;5479;52.046;6.314;2023-10-13T14:27:13;13.75;;;6.15;;
10851;SDS011;5479;52.046;6.314;2023-10-13T14:29:44;14.15;;;6.43;;
10851;SDS011;5479;52.046;6.314;2023-10-13T14:32:13;11.32;;;5.32;;
10851;SDS011;5479;52.046;6.314;2023-10-13T14:34:42;10.50;;;5.68;;
10851;SDS011;5479;52.046;6.314;2023-10-13T14:37:12;13.75;;;6.22;;
10851;SDS011;5479;52.046;6.314;2023-10-13T14:39:40;13.60;;;6.25;;
10851;SDS011;5479;52.046;6.314;2023-10-13T14:42:08;16.02;;;5.75;;
10851;SDS011;5479;52.046;6.314;2023-10-13T14:44:36;13.85;;;5.70;;
10851;SDS011;5479;52.046;6.314;2023-10-13T14:47:04;13.38;;;6.03;;
10851;SDS011;5479;52.046;6.314;2023-10-13T14:49:36;12.30;;;5.90;;
10851;SDS011;5479;52.046;6.314;2023-10-13T14:52:04;15.02;;;6.30;;
10851;SDS011;5479;52.046;6.314;2023-10-13T14:54:32;20.05;;;6.13;;
10851;SDS011;5479;52.046;6.314;2023-10-13T14:57:00;13.25;;;5.75;;
10851;SDS011;5479;52.046;6.314;2023-10-13T14:59:28;14.32;;;5.47;;
10851;SDS011;5479;52.046;6.314;2023-10-13T15:02:00;14.52;;;6.25;;
10851;SDS011;5479;52.046;6.314;2023-10-13T15:04:29;13.00;;;5.75;;
10851;SDS011;5479;52.046;6.314;2023-10-13T15:07:00;12.55;;;5.63;;
10851;SDS011;5479;52.046;6.314;2023-10-13T15:09:29;14.85;;;6.32;;
10851;SDS011;5479;52.046;6.314;2023-10-13T15:11:57;13.32;;;6.03;;
10851;SDS011;5479;52.046;6.314;2023-10-13T15:14:25;12.57;;;5.35;;
10851;SDS011;5479;52.046;6.314;2023-10-13T15:16:53;12.05;;;5.63;;
10851;SDS011;5479;52.046;6.314;2023-10-13T15:19:26;11.65;;;5.57;;
10851;SDS011;5479;52.046;6.314;2023-10-13T15:21:56;13.98;;;5.82;;
10851;SDS011;5479;52.046;6.314;2023-10-13T15:24:27;13.10;;;5.43;;
10851;SDS011;5479;52.046;6.314;2023-10-13T15:26:55;14.15;;;5.80;;
10851;SDS011;5479;52.046;6.314;2023-10-13T15:29:28;15.75;;;6.22;;